sensor_id;sensor_type;location;lat;lon;timestamp;P1;durP1;ratioP1;P2;durP2;ratioP2
53977;SDS011;39886;47.984;-1.586;2022-11-24T00:01:52;3.22;;;1.42;;
53977;SDS011;39886;47.984;-1.586;2022-11-24T00:04:18;3.53;;;1.42;;
53977;SDS011;39886;47.984;-1.586;2022-11-24T00:06:43;3.90;;;1.48;;
53977;SDS011;39886;47.984;-1.586;2022-11-24T00:09:09;3.40;;;1.27;;
53977;SDS011;39886;47.984;-1.586;2022-11-24T00:11:36;3.25;;;1.52;;
53977;SDS011;39886;47.984;-1.586;2022-11-24T00:14:02;2.25;;;1.40;;
53977;SDS011;39886;47.984;-1.586;2022-11-24T00:16:29;2.72;;;1.35;;
53977;SDS011;39886;47.984;-1.586;2022-11-24T00:18:57;2.65;;;1.40;;
53977;SDS011;39886;47.984;-1.586;2022-11-24T00:21:24;4.07;;;1.42;;
53977;SDS011;39886;47.984;-1.586;2022-11-24T00:23:51;2.63;;;1.50;;
53977;SDS011;39886;47.984;-1.586;2022-11-24T00:26:25;3.50;;;1.38;;
53977;SDS011;39886;47.984;-1.586;2022-11-24T00:28:53;3.28;;;1.23;;
53977;SDS011;39886;47.984;-1.586;2022-11-24T00:31:21;2.67;;;1.33;;
53977;SDS011;39886;47.984;-1.586;2022-11-24T00:33:49;2.80;;;1.17;;
53977;SDS011;39886;47.984;-1.586;2022-11-24T00:36:16;2.97;;;1.33;;
53977;SDS011;39886;47.984;-1.586;2022-11-24T00:38:43;2.10;;;1.40;;
53977;SDS011;39886;47.984;-1.586;2022-11-24T00:41:09;2.08;;;1.20;;
53977;SDS011;39886;47.984;-1.586;2022-11-24T00:43:35;2.15;;;1.30;;
53977;SDS011;39886;47.984;-1.586;2022-11-24T00:46:01;2.63;;;1.40;;
53977;SDS011;39886;47.984;-1.586;2022-11-24T00:48:27;2.10;;;1.40;;
53977;SDS011;39886;47.984;-1.586;2022-11-24T00:50:55;3.13;;;1.35;;
53977;SDS011;39886;47.984;-1.586;2022-11-24T00:53:31;4.00;;;1.55;;
53977;SDS011;39886;47.984;-1.586;2022-11-24T00:55:57;3.47;;;1.42;;
53977;SDS011;39886;47.984;-1.586;2022-11-24T00:58:23;2.75;;;1.40;;
53977;SDS011;39886;47.984;-1.586;2022-11-24T01:00:49;2.75;;;1.40;;
53977;SDS011;39886;47.984;-1.586;2022-11-24T01:03:17;1.98;;;1.20;;
53977;SDS011;39886;47.984;-1.586;2022-11-24T01:05:43;2.15;;;1.25;;
53977;SDS011;39886;47.984;-1.586;2022-11-24T01:08:09;2.17;;;1.20;;
53977;SDS011;39886;47.984;-1.586;2022-11-24T01:10:35;2.00;;;1.23;;
53977;SDS011;39886;47.984;-1.586;2022-11-24T01:13:01;1.95;;;1.38;;
53977;SDS011;39886;47.984;-1.586;2022-11-24T01:15:27;2.45;;;1.30;;
53977;SDS011;39886;47.984;-1.586;2022-11-24T01:17:54;2.13;;;1.50;;
53977;SDS011;39886;47.984;-1.586;2022-11-24T01:20:20;3.95;;;1.48;;
53977;SDS011;39886;47.984;-1.586;2022-11-24T01:22:49;2.42;;;1.20;;
53977;SDS011;39886;47.984;-1.586;2022-11-24T01:25:15;2.25;;;1.40;;
53977;SDS011;39886;47.984;-1.586;2022-11-24T01:27:40;2.95;;;1.50;;
53977;SDS011;39886;47.984;-1.586;2022-11-24T01:30:06;2.60;;;1.35;;
53977;SDS011;39886;47.984;-1.586;2022-11-24T01:32:33;3.15;;;1.55;;
53977;SDS011;39886;47.984;-1.586;2022-11-24T01:35:00;1.38;;;1.05;;
53977;SDS011;39886;47.984;-1.586;2022-11-24T01:37:27;2.50;;;1.20;;
53977;SDS011;39886;47.984;-1.586;2022-11-24T01:39:53;2.53;;;1.05;;
53977;SDS011;39886;47.984;-1.586;2022-11-24T01:42:19;2.17;;;1.30;;
53977;SDS011;39886;47.984;-1.586;2022-11-24T01:44:44;2.63;;;1.27;;
53977;SDS011;39886;47.984;-1.586;2022-11-24T01:50:09;2.05;;;1.20;;
53977;SDS011;39886;47.984;-1.586;2022-11-24T01:52:41;2.60;;;1.20;;
53977;SDS011;39886;47.984;-1.586;2022-11-24T01:55:19;2.53;;;1.30;;
53977;SDS011;39886;47.984;-1.586;2022-11-24T02:00:17;1.65;;;1.30;;
53977;SDS011;39886;47.984;-1.586;2022-11-24T02:02:43;1.77;;;1.05;;
53977;SDS011;39886;47.984;-1.586;2022-11-24T02:07:43;2.08;;;0.90;;
53977;SDS011;39886;47.984;-1.586;2022-11-24T02:10:11;1.98;;;1.38;;
53977;SDS011;39886;47.984;-1.586;2022-11-24T02:12:40;1.77;;;1.10;;
53977;SDS011;39886;47.984;-1.586;2022-11-24T02:15:09;3.83;;;1.50;;
53977;SDS011;39886;47.984;-1.586;2022-11-24T02:17:36;1.92;;;1.23;;
53977;SDS011;39886;47.984;-1.586;2022-11-24T02:20:03;1.95;;;0.95;;
53977;SDS011;39886;47.984;-1.586;2022-11-24T02:25:09;2.35;;;1.63;;
53977;SDS011;39886;47.984;-1.586;2022-11-24T02:27:56;2.33;;;1.20;;
53977;SDS011;39886;47.984;-1.586;2022-11-24T02:30:24;2.42;;;1.25;;
53977;SDS011;39886;47.984;-1.586;2022-11-24T02:32:50;3.03;;;1.38;;
53977;SDS011;39886;47.984;-1.586;2022-11-24T02:35:17;1.33;;;0.93;;
53977;SDS011;39886;47.984;-1.586;2022-11-24T02:37:43;2.28;;;1.05;;
53977;SDS011;39886;47.984;-1.586;2022-11-24T02:40:09;2.13;;;1.27;;
53977;SDS011;39886;47.984;-1.586;2022-11-24T02:42:39;1.92;;;1.05;;
53977;SDS011;39886;47.984;-1.586;2022-11-24T02:45:08;1.90;;;1.27;;
53977;SDS011;39886;47.984;-1.586;2022-11-24T02:47:35;1.80;;;1.00;;
53977;SDS011;39886;47.984;-1.586;2022-11-24T02:50:01;4.03;;;1.30;;
53977;SDS011;39886;47.984;-1.586;2022-11-24T02:52:27;1.92;;;1.10;;
53977;SDS011;39886;47.984;-1.586;2022-11-24T02:54:53;1.83;;;1.10;;
53977;SDS011;39886;47.984;-1.586;2022-11-24T02:57:18;2.55;;;1.10;;
53977;SDS011;39886;47.984;-1.586;2022-11-24T02:59:46;2.85;;;1.05;;
53977;SDS011;39886;47.984;-1.586;2022-11-24T03:02:12;2.40;;;1.17;;
53977;SDS011;39886;47.984;-1.586;2022-11-24T03:04:38;2.17;;;1.30;;
53977;SDS011;39886;47.984;-1.586;2022-11-24T03:07:03;2.00;;;1.10;;
53977;SDS011;39886;47.984;-1.586;2022-11-24T03:09:29;3.10;;;1.40;;
53977;SDS011;39886;47.984;-1.586;2022-11-24T03:11:55;2.08;;;1.10;;
53977;SDS011;39886;47.984;-1.586;2022-11-24T03:14:21;1.98;;;0.98;;
53977;SDS011;39886;47.984;-1.586;2022-11-24T03:16:46;1.73;;;1.10;;
53977;SDS011;39886;47.984;-1.586;2022-11-24T03:19:12;2.15;;;1.33;;
53977;SDS011;39886;47.984;-1.586;2022-11-24T03:21:38;1.95;;;1.27;;
53977;SDS011;39886;47.984;-1.586;2022-11-24T03:24:04;1.33;;;1.08;;
53977;SDS011;39886;47.984;-1.586;2022-11-24T03:26:29;2.22;;;1.20;;
53977;SDS011;39886;47.984;-1.586;2022-11-24T03:28:57;2.72;;;1.30;;
53977;SDS011;39886;47.984;-1.586;2022-11-24T03:31:23;1.65;;;1.00;;
53977;SDS011;39886;47.984;-1.586;2022-11-24T03:33:49;1.20;;;0.93;;
53977;SDS011;39886;47.984;-1.586;2022-11-24T03:36:14;1.48;;;1.05;;
53977;SDS011;39886;47.984;-1.586;2022-11-24T03:38:41;2.72;;;1.35;;
53977;SDS011;39886;47.984;-1.586;2022-11-24T03:41:06;1.90;;;1.08;;
53977;SDS011;39886;47.984;-1.586;2022-11-24T03:43:32;1.63;;;1.08;;
53977;SDS011;39886;47.984;-1.586;2022-11-24T03:45:58;2.20;;;1.10;;
53977;SDS011;39886;47.984;-1.586;2022-11-24T03:48:24;1.45;;;0.90;;
53977;SDS011;39886;47.984;-1.586;2022-11-24T03:50:56;1.70;;;1.02;;
53977;SDS011;39886;47.984;-1.586;2022-11-24T03:53:25;2.28;;;1.20;;
53977;SDS011;39886;47.984;-1.586;2022-11-24T03:55:52;1.98;;;1.00;;
53977;SDS011;39886;47.984;-1.586;2022-11-24T03:58:18;2.20;;;1.05;;
53977;SDS011;39886;47.984;-1.586;2022-11-24T04:00:44;1.85;;;1.10;;
53977;SDS011;39886;47.984;-1.586;2022-11-24T04:03:10;2.35;;;1.10;;
53977;SDS011;39886;47.984;-1.586;2022-11-24T04:05:36;1.15;;;0.98;;
53977;SDS011;39886;47.984;-1.586;2022-11-24T04:08:02;2.13;;;1.00;;
53977;SDS011;39886;47.984;-1.586;2022-11-24T04:10:30;1.90;;;1.05;;
53977;SDS011;39886;47.984;-1.586;2022-11-24T04:12:57;2.67;;;1.52;;
53977;SDS011;39886;47.984;-1.586;2022-11-24T04:15:23;2.28;;;1.20;;
53977;SDS011;39886;47.984;-1.586;2022-11-24T04:17:49;1.45;;;0.90;;
53977;SDS011;39886;47.984;-1.586;2022-11-24T04:20:15;1.02;;;0.85;;
53977;SDS011;39886;47.984;-1.586;2022-11-24T04:22:41;2.17;;;1.00;;
53977;SDS011;39886;47.984;-1.586;2022-11-24T04:25:07;2.50;;;1.20;;
53977;SDS011;39886;47.984;-1.586;2022-11-24T04:27:35;1.73;;;0.90;;
53977;SDS011;39886;47.984;-1.586;2022-11-24T04:30:02;2.05;;;0.98;;
53977;SDS011;39886;47.984;-1.586;2022-11-24T04:32:29;1.85;;;1.10;;
53977;SDS011;39886;47.984;-1.586;2022-11-24T04:34:55;1.67;;;1.00;;
53977;SDS011;39886;47.984;-1.586;2022-11-24T04:37:21;1.42;;;1.08;;
53977;SDS011;39886;47.984;-1.586;2022-11-24T04:39:47;1.80;;;0.95;;
53977;SDS011;39886;47.984;-1.586;2022-11-24T04:42:12;2.03;;;0.93;;
53977;SDS011;39886;47.984;-1.586;2022-11-24T04:44:38;2.65;;;1.30;;
53977;SDS011;39886;47.984;-1.586;2022-11-24T04:47:04;2.15;;;1.33;;
53977;SDS011;39886;47.984;-1.586;2022-11-24T04:49:30;1.17;;;0.85;;
53977;SDS011;39886;47.984;-1.586;2022-11-24T04:51:55;2.00;;;1.17;;
53977;SDS011;39886;47.984;-1.586;2022-11-24T04:54:21;1.73;;;1.00;;
53977;SDS011;39886;47.984;-1.586;2022-11-24T04:56:50;1.13;;;0.95;;
53977;SDS011;39886;47.984;-1.586;2022-11-24T04:59:16;1.98;;;0.90;;
53977;SDS011;39886;47.984;-1.586;2022-11-24T05:01:43;1.83;;;1.10;;
53977;SDS011;39886;47.984;-1.586;2022-11-24T05:04:11;2.22;;;1.15;;
53977;SDS011;39886;47.984;-1.586;2022-11-24T05:06:38;1.65;;;1.13;;
53977;SDS011;39886;47.984;-1.586;2022-11-24T05:09:04;2.20;;;1.15;;
53977;SDS011;39886;47.984;-1.586;2022-11-24T05:11:30;1.98;;;1.30;;
53977;SDS011;39886;47.984;-1.586;2022-11-24T05:13:55;2.40;;;1.00;;
53977;SDS011;39886;47.984;-1.586;2022-11-24T05:16:21;2.30;;;1.20;;
53977;SDS011;39886;47.984;-1.586;2022-11-24T05:18:47;1.55;;;1.10;;
53977;SDS011;39886;47.984;-1.586;2022-11-24T05:21:13;1.58;;;1.02;;
53977;SDS011;39886;47.984;-1.586;2022-11-24T05:23:39;2.08;;;1.08;;
53977;SDS011;39886;47.984;-1.586;2022-11-24T05:26:04;1.35;;;1.00;;
53977;SDS011;39886;47.984;-1.586;2022-11-24T05:28:31;2.85;;;1.00;;
53977;SDS011;39886;47.984;-1.586;2022-11-24T05:31:00;1.65;;;1.00;;
53977;SDS011;39886;47.984;-1.586;2022-11-24T05:33:26;1.67;;;1.17;;
53977;SDS011;39886;47.984;-1.586;2022-11-24T05:35:54;2.30;;;0.90;;
53977;SDS011;39886;47.984;-1.586;2022-11-24T05:38:24;1.70;;;1.42;;
53977;SDS011;39886;47.984;-1.586;2022-11-24T05:40:50;1.83;;;0.90;;
53977;SDS011;39886;47.984;-1.586;2022-11-24T05:43:16;2.20;;;0.80;;
53977;SDS011;39886;47.984;-1.586;2022-11-24T05:45:42;1.48;;;0.88;;
53977;SDS011;39886;47.984;-1.586;2022-11-24T05:48:09;1.90;;;1.02;;
53977;SDS011;39886;47.984;-1.586;2022-11-24T05:50:37;1.92;;;1.02;;
53977;SDS011;39886;47.984;-1.586;2022-11-24T05:53:03;2.30;;;1.00;;
53977;SDS011;39886;47.984;-1.586;2022-11-24T05:55:37;1.30;;;0.98;;
53977;SDS011;39886;47.984;-1.586;2022-11-24T05:58:05;2.35;;;1.00;;
53977;SDS011;39886;47.984;-1.586;2022-11-24T06:00:33;1.38;;;1.10;;
53977;SDS011;39886;47.984;-1.586;2022-11-24T06:02:59;1.30;;;1.08;;
53977;SDS011;39886;47.984;-1.586;2022-11-24T06:05:26;1.55;;;0.90;;
53977;SDS011;39886;47.984;-1.586;2022-11-24T06:07:53;1.52;;;1.10;;
53977;SDS011;39886;47.984;-1.586;2022-11-24T06:10:19;1.67;;;1.00;;
53977;SDS011;39886;47.984;-1.586;2022-11-24T06:12:47;1.65;;;0.82;;
53977;SDS011;39886;47.984;-1.586;2022-11-24T06:15:13;1.60;;;0.90;;
53977;SDS011;39886;47.984;-1.586;2022-11-24T06:17:39;2.33;;;1.10;;
53977;SDS011;39886;47.984;-1.586;2022-11-24T06:20:06;1.63;;;1.02;;
53977;SDS011;39886;47.984;-1.586;2022-11-24T06:22:33;1.13;;;0.90;;
53977;SDS011;39886;47.984;-1.586;2022-11-24T06:24:59;2.40;;;1.02;;
53977;SDS011;39886;47.984;-1.586;2022-11-24T06:27:25;2.72;;;1.10;;
53977;SDS011;39886;47.984;-1.586;2022-11-24T06:29:51;1.20;;;0.90;;
53977;SDS011;39886;47.984;-1.586;2022-11-24T06:32:17;2.83;;;1.20;;
53977;SDS011;39886;47.984;-1.586;2022-11-24T06:34:43;2.35;;;1.08;;
53977;SDS011;39886;47.984;-1.586;2022-11-24T06:37:08;1.48;;;1.00;;
53977;SDS011;39886;47.984;-1.586;2022-11-24T06:39:34;2.00;;;1.08;;
53977;SDS011;39886;47.984;-1.586;2022-11-24T06:42:00;2.22;;;1.13;;
53977;SDS011;39886;47.984;-1.586;2022-11-24T06:44:26;1.83;;;0.90;;
53977;SDS011;39886;47.984;-1.586;2022-11-24T06:46:52;2.10;;;0.90;;
53977;SDS011;39886;47.984;-1.586;2022-11-24T06:49:17;1.65;;;0.82;;
53977;SDS011;39886;47.984;-1.586;2022-11-24T06:51:43;2.08;;;0.90;;
53977;SDS011;39886;47.984;-1.586;2022-11-24T06:54:11;1.67;;;1.10;;
53977;SDS011;39886;47.984;-1.586;2022-11-24T06:56:45;1.90;;;1.10;;
53977;SDS011;39886;47.984;-1.586;2022-11-24T06:59:18;2.08;;;1.00;;
53977;SDS011;39886;47.984;-1.586;2022-11-24T07:04:11;1.35;;;0.90;;
53977;SDS011;39886;47.984;-1.586;2022-11-24T07:06:37;2.13;;;1.08;;
53977;SDS011;39886;47.984;-1.586;2022-11-24T07:09:05;3.90;;;0.90;;
53977;SDS011;39886;47.984;-1.586;2022-11-24T07:11:31;1.85;;;0.93;;
53977;SDS011;39886;47.984;-1.586;2022-11-24T07:13:57;2.33;;;1.27;;
53977;SDS011;39886;47.984;-1.586;2022-11-24T07:16:23;2.08;;;0.80;;
53977;SDS011;39886;47.984;-1.586;2022-11-24T07:18:50;2.65;;;1.10;;
53977;SDS011;39886;47.984;-1.586;2022-11-24T07:21:20;2.40;;;0.90;;
53977;SDS011;39886;47.984;-1.586;2022-11-24T07:23:50;3.05;;;1.05;;
53977;SDS011;39886;47.984;-1.586;2022-11-24T07:26:17;2.17;;;1.27;;
53977;SDS011;39886;47.984;-1.586;2022-11-24T07:28:43;2.70;;;1.17;;
53977;SDS011;39886;47.984;-1.586;2022-11-24T07:31:10;1.85;;;1.08;;
53977;SDS011;39886;47.984;-1.586;2022-11-24T07:33:38;3.58;;;1.42;;
53977;SDS011;39886;47.984;-1.586;2022-11-24T07:36:05;3.17;;;1.35;;
53977;SDS011;39886;47.984;-1.586;2022-11-24T07:38:32;3.58;;;1.05;;
53977;SDS011;39886;47.984;-1.586;2022-11-24T07:41:02;2.35;;;1.33;;
53977;SDS011;39886;47.984;-1.586;2022-11-24T07:43:31;2.17;;;1.08;;
53977;SDS011;39886;47.984;-1.586;2022-11-24T07:45:58;4.25;;;1.40;;
53977;SDS011;39886;47.984;-1.586;2022-11-24T07:48:24;2.35;;;1.20;;
53977;SDS011;39886;47.984;-1.586;2022-11-24T07:50:50;3.90;;;1.27;;
53977;SDS011;39886;47.984;-1.586;2022-11-24T07:53:16;3.78;;;1.30;;
53977;SDS011;39886;47.984;-1.586;2022-11-24T07:55:42;2.22;;;1.27;;
53977;SDS011;39886;47.984;-1.586;2022-11-24T07:58:08;2.50;;;1.10;;
53977;SDS011;39886;47.984;-1.586;2022-11-24T08:00:34;2.95;;;1.20;;
53977;SDS011;39886;47.984;-1.586;2022-11-24T08:02:59;3.67;;;1.27;;
53977;SDS011;39886;47.984;-1.586;2022-11-24T08:05:25;4.13;;;1.50;;
53977;SDS011;39886;47.984;-1.586;2022-11-24T08:07:52;3.47;;;1.40;;
53977;SDS011;39886;47.984;-1.586;2022-11-24T08:10:18;5.18;;;1.50;;
53977;SDS011;39886;47.984;-1.586;2022-11-24T08:12:43;4.38;;;1.15;;
53977;SDS011;39886;47.984;-1.586;2022-11-24T08:15:09;2.92;;;1.40;;
53977;SDS011;39886;47.984;-1.586;2022-11-24T08:17:35;3.63;;;1.50;;
53977;SDS011;39886;47.984;-1.586;2022-11-24T08:20:03;5.57;;;1.80;;
53977;SDS011;39886;47.984;-1.586;2022-11-24T08:22:29;2.70;;;1.27;;
53977;SDS011;39886;47.984;-1.586;2022-11-24T08:24:55;4.20;;;1.17;;
53977;SDS011;39886;47.984;-1.586;2022-11-24T08:27:21;3.45;;;1.30;;
53977;SDS011;39886;47.984;-1.586;2022-11-24T08:29:47;5.75;;;1.58;;
53977;SDS011;39886;47.984;-1.586;2022-11-24T08:32:12;5.40;;;1.50;;
53977;SDS011;39886;47.984;-1.586;2022-11-24T08:34:39;4.93;;;1.58;;
53977;SDS011;39886;47.984;-1.586;2022-11-24T08:37:04;5.03;;;1.42;;
53977;SDS011;39886;47.984;-1.586;2022-11-24T08:39:31;4.15;;;1.55;;
53977;SDS011;39886;47.984;-1.586;2022-11-24T08:41:57;2.90;;;1.33;;
53977;SDS011;39886;47.984;-1.586;2022-11-24T08:44:22;4.32;;;1.20;;
53977;SDS011;39886;47.984;-1.586;2022-11-24T08:46:48;6.75;;;1.45;;
53977;SDS011;39886;47.984;-1.586;2022-11-24T08:49:14;5.50;;;1.38;;
53977;SDS011;39886;47.984;-1.586;2022-11-24T08:51:40;5.47;;;1.58;;
53977;SDS011;39886;47.984;-1.586;2022-11-24T08:54:07;3.10;;;1.58;;
53977;SDS011;39886;47.984;-1.586;2022-11-24T08:56:37;7.38;;;1.38;;
53977;SDS011;39886;47.984;-1.586;2022-11-24T08:59:03;3.92;;;1.55;;
53977;SDS011;39886;47.984;-1.586;2022-11-24T09:01:29;3.90;;;1.52;;
53977;SDS011;39886;47.984;-1.586;2022-11-24T09:03:55;3.33;;;1.23;;
53977;SDS011;39886;47.984;-1.586;2022-11-24T09:06:23;5.28;;;1.75;;
53977;SDS011;39886;47.984;-1.586;2022-11-24T09:08:51;4.20;;;1.40;;
53977;SDS011;39886;47.984;-1.586;2022-11-24T09:11:18;5.50;;;1.30;;
53977;SDS011;39886;47.984;-1.586;2022-11-24T09:13:44;5.47;;;1.60;;
53977;SDS011;39886;47.984;-1.586;2022-11-24T09:16:11;4.90;;;1.40;;
53977;SDS011;39886;47.984;-1.586;2022-11-24T09:18:41;6.10;;;1.98;;
53977;SDS011;39886;47.984;-1.586;2022-11-24T09:21:17;4.32;;;1.58;;
53977;SDS011;39886;47.984;-1.586;2022-11-24T09:23:45;4.53;;;1.65;;
53977;SDS011;39886;47.984;-1.586;2022-11-24T09:26:19;6.03;;;1.88;;
53977;SDS011;39886;47.984;-1.586;2022-11-24T09:28:47;4.95;;;1.65;;
53977;SDS011;39886;47.984;-1.586;2022-11-24T09:31:14;5.40;;;1.52;;
53977;SDS011;39886;47.984;-1.586;2022-11-24T09:33:41;5.80;;;1.73;;
53977;SDS011;39886;47.984;-1.586;2022-11-24T09:36:07;4.10;;;1.20;;
53977;SDS011;39886;47.984;-1.586;2022-11-24T09:38:34;5.05;;;1.58;;
53977;SDS011;39886;47.984;-1.586;2022-11-24T09:49:38;3.20;;;1.40;;
53977;SDS011;39886;47.984;-1.586;2022-11-24T09:52:10;4.30;;;1.40;;
53977;SDS011;39886;47.984;-1.586;2022-11-24T09:54:45;21.17;;;1.95;;
53977;SDS011;39886;47.984;-1.586;2022-11-24T09:57:18;5.80;;;1.77;;
53977;SDS011;39886;47.984;-1.586;2022-11-24T09:59:48;7.47;;;1.65;;
53977;SDS011;39886;47.984;-1.586;2022-11-24T10:02:14;6.07;;;1.80;;
53977;SDS011;39886;47.984;-1.586;2022-11-24T10:04:43;4.18;;;1.80;;
53977;SDS011;39886;47.984;-1.586;2022-11-24T10:10:10;3.78;;;1.73;;
53977;SDS011;39886;47.984;-1.586;2022-11-24T10:18:09;5.00;;;1.90;;
53977;SDS011;39886;47.984;-1.586;2022-11-24T10:23:33;6.50;;;1.95;;
53977;SDS011;39886;47.984;-1.586;2022-11-24T10:26:15;4.75;;;1.80;;
53977;SDS011;39886;47.984;-1.586;2022-11-24T10:28:51;4.93;;;2.17;;
53977;SDS011;39886;47.984;-1.586;2022-11-24T10:33:59;4.90;;;1.90;;
53977;SDS011;39886;47.984;-1.586;2022-11-24T10:36:44;4.95;;;2.15;;
53977;SDS011;39886;47.984;-1.586;2022-11-24T10:42:19;4.10;;;1.67;;
53977;SDS011;39886;47.984;-1.586;2022-11-24T10:47:25;5.55;;;1.70;;
53977;SDS011;39886;47.984;-1.586;2022-11-24T10:52:27;5.72;;;2.03;;
53977;SDS011;39886;47.984;-1.586;2022-11-24T10:54:56;5.00;;;2.15;;
53977;SDS011;39886;47.984;-1.586;2022-11-24T10:57:28;4.18;;;1.65;;
53977;SDS011;39886;47.984;-1.586;2022-11-24T10:59:55;5.05;;;1.90;;
53977;SDS011;39886;47.984;-1.586;2022-11-24T11:02:25;5.28;;;1.63;;
53977;SDS011;39886;47.984;-1.586;2022-11-24T11:04:52;6.28;;;1.88;;
53977;SDS011;39886;47.984;-1.586;2022-11-24T11:07:19;4.93;;;2.00;;
53977;SDS011;39886;47.984;-1.586;2022-11-24T11:09:46;5.45;;;1.77;;
53977;SDS011;39886;47.984;-1.586;2022-11-24T11:12:19;5.07;;;2.17;;
53977;SDS011;39886;47.984;-1.586;2022-11-24T11:14:48;6.30;;;1.80;;
53977;SDS011;39886;47.984;-1.586;2022-11-24T11:20:21;5.15;;;2.03;;
53977;SDS011;39886;47.984;-1.586;2022-11-24T11:33:30;5.85;;;1.88;;
53977;SDS011;39886;47.984;-1.586;2022-11-24T11:36:03;4.85;;;1.98;;
53977;SDS011;39886;47.984;-1.586;2022-11-24T11:38:36;5.05;;;1.70;;
53977;SDS011;39886;47.984;-1.586;2022-11-24T11:41:03;4.55;;;1.73;;
53977;SDS011;39886;47.984;-1.586;2022-11-24T11:43:34;5.18;;;1.70;;
53977;SDS011;39886;47.984;-1.586;2022-11-24T11:46:11;8.07;;;2.22;;
53977;SDS011;39886;47.984;-1.586;2022-11-24T11:48:43;7.32;;;2.13;;
53977;SDS011;39886;47.984;-1.586;2022-11-24T11:59:35;7.82;;;2.17;;
53977;SDS011;39886;47.984;-1.586;2022-11-24T12:10:32;7.88;;;2.05;;
53977;SDS011;39886;47.984;-1.586;2022-11-24T12:13:12;5.43;;;1.90;;
53977;SDS011;39886;47.984;-1.586;2022-11-24T12:15:58;7.13;;;2.00;;
53977;SDS011;39886;47.984;-1.586;2022-11-24T12:26:36;5.40;;;2.00;;
53977;SDS011;39886;47.984;-1.586;2022-11-24T12:50:44;4.53;;;1.85;;
53977;SDS011;39886;47.984;-1.586;2022-11-24T12:55:42;5.55;;;1.70;;
53977;SDS011;39886;47.984;-1.586;2022-11-24T13:07:02;4.60;;;2.03;;
53977;SDS011;39886;47.984;-1.586;2022-11-24T13:09:37;3.97;;;1.73;;
53977;SDS011;39886;47.984;-1.586;2022-11-24T13:12:22;7.00;;;2.10;;
53977;SDS011;39886;47.984;-1.586;2022-11-24T13:14:48;5.05;;;1.65;;
53977;SDS011;39886;47.984;-1.586;2022-11-24T13:19:52;5.70;;;1.70;;
53977;SDS011;39886;47.984;-1.586;2022-11-24T13:22:50;6.25;;;1.88;;
53977;SDS011;39886;47.984;-1.586;2022-11-24T13:25:22;3.88;;;1.67;;
53977;SDS011;39886;47.984;-1.586;2022-11-24T13:27:56;6.75;;;1.90;;
53977;SDS011;39886;47.984;-1.586;2022-11-24T13:35:36;9.32;;;2.13;;
53977;SDS011;39886;47.984;-1.586;2022-11-24T13:38:38;6.80;;;1.85;;
53977;SDS011;39886;47.984;-1.586;2022-11-24T13:41:07;5.27;;;2.23;;
53977;SDS011;39886;47.984;-1.586;2022-11-24T13:43:34;5.53;;;1.50;;
53977;SDS011;39886;47.984;-1.586;2022-11-24T13:46:01;8.77;;;2.20;;
53977;SDS011;39886;47.984;-1.586;2022-11-24T13:58:42;6.18;;;1.75;;
53977;SDS011;39886;47.984;-1.586;2022-11-24T14:01:23;5.20;;;1.90;;
53977;SDS011;39886;47.984;-1.586;2022-11-24T14:06:44;4.45;;;2.13;;
53977;SDS011;39886;47.984;-1.586;2022-11-24T14:09:24;4.53;;;2.17;;
53977;SDS011;39886;47.984;-1.586;2022-11-24T14:12:17;4.70;;;2.35;;
53977;SDS011;39886;47.984;-1.586;2022-11-24T14:14:45;6.07;;;2.13;;
53977;SDS011;39886;47.984;-1.586;2022-11-24T14:19:47;6.22;;;2.28;;
53977;SDS011;39886;47.984;-1.586;2022-11-24T14:22:16;6.78;;;2.10;;
53977;SDS011;39886;47.984;-1.586;2022-11-24T14:27:19;4.80;;;1.85;;
53977;SDS011;39886;47.984;-1.586;2022-11-24T14:30:15;7.63;;;2.50;;
53977;SDS011;39886;47.984;-1.586;2022-11-24T14:32:37;4.72;;;2.10;;
53977;SDS011;39886;47.984;-1.586;2022-11-24T14:37:52;6.00;;;1.67;;
53977;SDS011;39886;47.984;-1.586;2022-11-24T14:43:11;7.43;;;2.40;;
53977;SDS011;39886;47.984;-1.586;2022-11-24T14:48:17;8.30;;;2.40;;
53977;SDS011;39886;47.984;-1.586;2022-11-24T14:50:48;5.90;;;2.28;;
53977;SDS011;39886;47.984;-1.586;2022-11-24T14:53:15;5.15;;;1.98;;
53977;SDS011;39886;47.984;-1.586;2022-11-24T14:55:44;8.73;;;2.33;;
53977;SDS011;39886;47.984;-1.586;2022-11-24T15:04:57;3.78;;;1.83;;
53977;SDS011;39886;47.984;-1.586;2022-11-24T15:07:24;7.25;;;1.77;;
53977;SDS011;39886;47.984;-1.586;2022-11-24T15:12:30;3.95;;;1.80;;
53977;SDS011;39886;47.984;-1.586;2022-11-24T15:15:05;4.03;;;1.95;;
53977;SDS011;39886;47.984;-1.586;2022-11-24T15:17:47;3.88;;;2.00;;
53977;SDS011;39886;47.984;-1.586;2022-11-24T15:20:21;8.07;;;2.40;;
53977;SDS011;39886;47.984;-1.586;2022-11-24T15:22:50;5.03;;;1.88;;
53977;SDS011;39886;47.984;-1.586;2022-11-24T15:25:42;3.38;;;1.80;;
53977;SDS011;39886;47.984;-1.586;2022-11-24T15:28:08;6.65;;;2.10;;
53977;SDS011;39886;47.984;-1.586;2022-11-24T15:30:35;9.13;;;1.95;;
